Time;durP1;ratioP1;P1;durP2;ratioP2;P2;SDS_P1;SDS_P2;PMS_P1;PMS_P2;Temp;Humidity;BMP_temperature;BMP_pressure;BME280_temperature;BME280_humidity;BME280_pressure;Samples;Min_cycle;Max_cycle;Signal;HPM_P1;HPM_P2
2023/07/25 00:01:19;;;;;;;9.30;3.05;;;;;;;17.23;100.00;99467.88;5153261;28;20021;-71
2023/07/25 00:03:49;;;;;;;11.00;3.13;;;;;;;17.15;100.00;99467.69;5164070;28;20436;-71
2023/07/25 00:06:20;;;;;;;6.05;2.65;;;;;;;17.07;100.00;99484.13;5158229;28;20538;-72
2023/07/25 00:08:50;;;;;;;5.32;2.58;;;;;;;16.96;100.00;99484.13;5158952;28;20034;-71
2023/07/25 00:11:21;;;;;;;7.25;2.35;;;;;;;17.08;100.00;99477.03;5161694;28;20030;-71
2023/07/25 00:13:51;;;;;;;5.38;2.67;;;;;;;17.10;100.00;99483.88;5158548;28;20452;-71
2023/07/25 00:16:21;;;;;;;6.95;2.35;;;;;;;17.06;100.00;99486.88;5154254;28;20026;-71
2023/07/25 00:18:51;;;;;;;8.88;2.28;;;;;;;16.90;100.00;99489.03;5149669;28;20500;-72
2023/07/25 00:21:22;;;;;;;8.65;2.50;;;;;;;16.82;100.00;99483.53;5146114;28;20031;-71
2023/07/25 00:23:52;;;;;;;11.25;3.20;;;;;;;16.83;100.00;99491.31;5150334;28;20046;-72
2023/07/25 00:26:22;;;;;;;9.73;2.38;;;;;;;16.88;100.00;99483.91;5152922;28;20023;-70
2023/07/25 00:28:53;;;;;;;6.07;2.28;;;;;;;16.75;100.00;99487.59;5153039;28;20068;-72
2023/07/25 00:31:23;;;;;;;6.88;2.05;;;;;;;16.61;100.00;99495.75;5157758;28;20101;-71
2023/07/25 00:33:53;;;;;;;6.53;2.15;;;;;;;16.74;100.00;99501.75;5158011;28;20033;-70
2023/07/25 00:36:23;;;;;;;2.80;1.88;;;;;;;16.69;100.00;99497.81;5151134;28;20023;-70
2023/07/25 00:38:54;;;;;;;6.43;2.03;;;;;;;16.68;100.00;99496.97;5151744;28;20037;-70
2023/07/25 00:41:24;;;;;;;5.93;2.08;;;;;;;16.54;100.00;99505.09;5156070;28;20105;-70
2023/07/25 00:43:54;;;;;;;4.22;1.92;;;;;;;16.60;100.00;99503.78;5164458;28;20026;-71
2023/07/25 00:46:25;;;;;;;7.13;1.83;;;;;;;16.53;100.00;99508.69;5156558;28;20082;-70
2023/07/25 00:48:55;;;;;;;3.80;1.30;;;;;;;16.61;100.00;99513.38;5152070;28;20031;-71
2023/07/25 00:51:25;;;;;;;5.38;1.77;;;;;;;16.60;100.00;99509.06;5153631;28;20054;-71
2023/07/25 00:53:56;;;;;;;5.72;1.98;;;;;;;16.43;100.00;99502.44;5156397;28;20026;-71
2023/07/25 00:56:27;;;;;;;4.55;1.95;;;;;;;16.51;100.00;99512.38;5150832;28;20054;-71
2023/07/25 00:58:57;;;;;;;3.80;1.60;;;;;;;16.54;100.00;99512.19;5153576;28;20026;-71
2023/07/25 01:01:28;;;;;;;5.28;1.88;;;;;;;16.55;100.00;99511.22;5151033;28;20293;-70
2023/07/25 01:03:59;;;;;;;3.97;1.73;;;;;;;16.47;100.00;99525.00;5153152;28;20036;-71
2023/07/25 01:06:29;;;;;;;5.65;2.05;;;;;;;16.58;100.00;99514.44;5171701;22;20513;-76
2023/07/25 01:08:59;;;;;;;9.80;1.88;;;;;;;16.53;100.00;99513.97;5149247;28;20031;-77
2023/07/25 01:11:30;;;;;;;3.17;1.60;;;;;;;16.59;100.00;99515.28;5152905;28;20069;-76
2023/07/25 01:14:00;;;;;;;6.88;1.70;;;;;;;16.47;100.00;99516.22;5152754;28;20538;-77
2023/07/25 01:16:30;;;;;;;5.40;1.50;;;;;;;16.53;100.00;99511.31;5154735;28;20030;-76
2023/07/25 01:19:01;;;;;;;4.55;1.30;;;;;;;16.46;100.00;99512.75;5144858;28;20047;-77
2023/07/25 01:21:31;;;;;;;3.88;1.33;;;;;;;16.49;100.00;99523.06;5153512;28;20488;-76
2023/07/25 01:24:02;;;;;;;4.85;1.25;;;;;;;16.48;100.00;99521.41;5153640;28;20184;-77
2023/07/25 01:26:32;;;;;;;3.45;1.20;;;;;;;16.52;100.00;99520.19;5151022;28;20028;-77
2023/07/25 01:29:02;;;;;;;4.40;1.40;;;;;;;16.42;100.00;99513.94;5152839;28;20031;-77
2023/07/25 01:31:32;;;;;;;5.65;1.23;;;;;;;16.38;100.00;99524.84;5153672;28;20046;-75
2023/07/25 01:34:03;;;;;;;4.78;1.23;;;;;;;16.21;100.00;99525.25;5155162;28;20606;-77
2023/07/25 01:36:33;;;;;;;7.40;1.75;;;;;;;16.22;100.00;99546.22;5155350;28;20022;-76
2023/07/25 01:39:03;;;;;;;7.65;1.40;;;;;;;16.18;100.00;99539.50;5154161;28;20030;-74
2023/07/25 01:41:34;;;;;;;4.22;1.33;;;;;;;16.09;100.00;99540.19;5153764;28;20030;-76
2023/07/25 01:44:05;;;;;;;4.65;1.20;;;;;;;16.15;100.00;99539.72;5150988;28;20034;-77
2023/07/25 01:46:35;;;;;;;5.45;1.60;;;;;;;16.13;100.00;99543.41;5237039;28;20036;-77
2023/07/25 01:49:05;;;;;;;4.70;1.52;;;;;;;16.17;100.00;99548.34;5153359;28;20268;-77
2023/07/25 01:51:36;;;;;;;5.55;1.30;;;;;;;16.20;100.00;99548.13;5153485;28;20486;-76
2023/07/25 01:54:07;;;;;;;5.13;1.75;;;;;;;16.08;100.00;99549.03;5153130;28;20026;-74
2023/07/25 01:56:37;;;;;;;4.82;1.30;;;;;;;16.01;100.00;99558.34;5152963;28;20125;-74
2023/07/25 01:59:07;;;;;;;5.85;1.30;;;;;;;15.98;100.00;99558.59;5152897;28;20026;-76
2023/07/25 02:01:38;;;;;;;4.03;1.65;;;;;;;15.87;100.00;99561.16;5151869;28;20060;-77
2023/07/25 02:04:08;;;;;;;5.10;1.40;;;;;;;15.99;100.00;99554.13;5150397;28;20101;-76
2023/07/25 02:06:38;;;;;;;3.78;1.23;;;;;;;16.04;100.00;99560.75;5163732;28;20017;-74
2023/07/25 02:09:09;;;;;;;5.93;1.35;;;;;;;15.99;100.00;99552.34;5152793;28;20232;-77
2023/07/25 02:11:39;;;;;;;5.82;1.70;;;;;;;16.00;100.00;99546.13;5173127;28;20033;-76
2023/07/25 02:14:09;;;;;;;7.15;1.13;;;;;;;16.21;100.00;99543.69;5172173;28;20036;-74
2023/07/25 02:16:40;;;;;;;3.88;1.35;;;;;;;16.21;100.00;99555.06;5172503;28;20030;-76
2023/07/25 02:19:10;;;;;;;6.45;1.50;;;;;;;16.13;100.00;99549.53;5172404;28;20033;-76
2023/07/25 02:21:41;;;;;;;8.38;1.38;;;;;;;16.21;100.00;99565.63;5173294;28;20025;-77
2023/07/25 02:24:11;;;;;;;5.47;1.40;;;;;;;16.07;100.00;99563.16;5173293;28;20026;-76
2023/07/25 02:26:41;;;;;;;4.78;1.42;;;;;;;16.07;100.00;99565.78;5154004;28;20022;-76
2023/07/25 02:29:11;;;;;;;6.93;1.65;;;;;;;16.05;100.00;99565.06;5172679;28;20029;-77
2023/07/25 02:31:42;;;;;;;8.93;1.60;;;;;;;16.13;100.00;99568.00;5167746;28;20094;-77
2023/07/25 02:34:12;;;;;;;8.65;1.80;;;;;;;16.11;100.00;99567.28;5171506;28;20113;-77
2023/07/25 02:36:43;;;;;;;10.50;1.27;;;;;;;16.11;100.00;99569.06;5151475;28;20138;-76
2023/07/25 02:39:13;;;;;;;9.82;2.40;;;;;;;16.15;100.00;99575.78;5153776;28;20033;-74
2023/07/25 02:41:43;;;;;;;8.05;1.50;;;;;;;16.14;100.00;99563.56;5170044;28;20395;-75
2023/07/25 02:44:13;;;;;;;6.85;1.80;;;;;;;16.13;100.00;99562.72;5157998;28;20025;-74
2023/07/25 02:46:44;;;;;;;4.88;1.70;;;;;;;16.07;100.00;99568.44;5172578;28;20022;-76
2023/07/25 02:49:14;;;;;;;11.23;1.55;;;;;;;16.00;100.00;99553.19;5172080;28;20451;-77
2023/07/25 02:51:44;;;;;;;7.60;1.48;;;;;;;15.91;100.00;99562.59;5173240;28;20280;-77
2023/07/25 02:54:14;;;;;;;5.35;1.55;;;;;;;15.97;100.00;99556.06;5172142;28;20034;-77
2023/07/25 02:56:45;;;;;;;3.72;1.60;;;;;;;15.87;100.00;99566.44;5171828;28;20462;-75
2023/07/25 02:59:15;;;;;;;7.65;1.80;;;;;;;15.92;100.00;99559.03;5172639;28;20026;-77
2023/07/25 03:01:45;;;;;;;8.50;1.88;;;;;;;15.87;100.00;99555.06;5172782;28;20040;-77
2023/07/25 03:04:16;;;;;;;5.35;1.30;;;;;;;15.86;100.00;99548.94;5173125;28;20041;-77
2023/07/25 03:06:46;;;;;;;4.43;1.58;;;;;;;15.87;100.00;99553.25;5172285;28;20444;-77
2023/07/25 03:09:16;;;;;;;6.30;1.40;;;;;;;15.96;100.00;99549.94;5154345;28;20057;-76
2023/07/25 03:11:46;;;;;;;8.23;2.25;;;;;;;15.91;100.00;99541.53;5154481;28;20295;-77
2023/07/25 03:14:17;;;;;;;9.35;1.80;;;;;;;15.75;100.00;99538.34;5172587;28;20443;-76
2023/07/25 03:16:48;;;;;;;7.05;1.45;;;;;;;15.70;100.00;99537.84;5156614;28;20022;-77
2023/07/25 03:19:18;;;;;;;4.75;1.30;;;;;;;15.75;100.00;99538.34;5173367;28;20116;-77
2023/07/25 03:21:48;;;;;;;8.30;1.90;;;;;;;15.91;100.00;99540.69;5177467;28;20459;-74
2023/07/25 03:24:18;;;;;;;4.25;1.40;;;;;;;15.92;100.00;99543.22;5176886;28;20033;-76
2023/07/25 03:26:49;;;;;;;5.40;1.60;;;;;;;15.74;100.00;99534.00;5174078;28;20021;-74
2023/07/25 03:29:19;;;;;;;6.75;1.80;;;;;;;15.85;100.00;99539.34;5175895;28;20071;-76
2023/07/25 03:31:49;;;;;;;8.35;1.65;;;;;;;15.84;100.00;99532.41;5175458;28;20033;-74
2023/07/25 03:34:20;;;;;;;7.50;1.48;;;;;;;15.67;100.00;99529.34;5176973;28;20025;-77
2023/07/25 03:36:50;;;;;;;6.82;1.58;;;;;;;15.82;100.00;99531.69;5174973;28;20502;-77
2023/07/25 03:39:20;;;;;;;5.95;1.60;;;;;;;15.73;100.00;99532.34;5176720;28;20034;-77
2023/07/25 03:41:50;;;;;;;7.90;1.90;;;;;;;15.66;100.00;99535.53;5163116;28;20029;-74
2023/07/25 03:44:21;;;;;;;8.23;1.65;;;;;;;15.82;100.00;99536.94;5157991;28;20147;-77
2023/07/25 03:46:51;;;;;;;7.65;1.83;;;;;;;15.67;100.00;99538.06;5174076;28;20387;-76
2023/07/25 03:49:21;;;;;;;12.38;1.80;;;;;;;15.64;100.00;99543.56;5175931;28;20030;-76
2023/07/25 03:51:52;;;;;;;5.85;1.70;;;;;;;15.70;100.00;99529.94;5174116;28;20653;-76
2023/07/25 03:54:23;;;;;;;5.50;1.70;;;;;;;15.79;100.00;99526.63;5173832;28;20071;-77
2023/07/25 03:56:54;;;;;;;6.30;1.73;;;;;;;15.79;100.00;99531.06;5173242;28;20109;-77
2023/07/25 03:59:24;;;;;;;9.48;1.98;;;;;;;15.76;100.00;99526.88;5176981;28;20562;-74
2023/07/25 04:01:54;;;;;;;4.25;1.60;;;;;;;15.81;100.00;99530.00;5176843;28;20029;-77
2023/07/25 04:04:25;;;;;;;8.00;1.90;;;;;;;15.88;100.00;99539.13;5175887;28;20105;-74
2023/07/25 04:06:55;;;;;;;7.37;2.10;;;;;;;15.61;100.00;99538.50;5174153;28;20442;-77
2023/07/25 04:09:25;;;;;;;7.35;1.80;;;;;;;15.84;100.00;99544.75;5176300;28;20296;-74
2023/07/25 04:11:55;;;;;;;10.57;1.70;;;;;;;15.85;100.00;99538.53;5173946;28;20029;-77
2023/07/25 04:14:26;;;;;;;12.50;1.85;;;;;;;15.93;100.00;99541.41;5173796;28;20312;-74
2023/07/25 04:16:56;;;;;;;6.47;2.17;;;;;;;15.85;100.00;99530.63;5162836;28;20026;-77
2023/07/25 04:19:26;;;;;;;4.68;1.60;;;;;;;15.90;100.00;99534.56;5175331;28;20505;-75
2023/07/25 04:21:56;;;;;;;7.78;1.88;;;;;;;15.76;100.00;99532.13;5172041;28;20083;-76
2023/07/25 04:24:27;;;;;;;7.45;1.50;;;;;;;15.87;100.00;99550.63;5173720;28;20030;-77
2023/07/25 04:26:57;;;;;;;6.30;1.80;;;;;;;15.80;100.00;99544.13;5172884;28;20380;-76
2023/07/25 04:29:27;;;;;;;9.10;1.73;;;;;;;15.96;100.00;99546.47;5176144;28;20044;-77
2023/07/25 04:31:58;;;;;;;9.90;1.70;;;;;;;16.07;100.00;99547.34;5154901;28;20022;-75
2023/07/25 04:34:28;;;;;;;12.13;1.77;;;;;;;16.04;100.00;99552.84;5170190;28;20038;-77
2023/07/25 04:36:58;;;;;;;5.65;1.50;;;;;;;16.06;100.00;99552.75;5173229;28;20395;-76
2023/07/25 04:39:28;;;;;;;6.95;1.92;;;;;;;16.04;100.00;99547.56;5174161;28;20034;-77
2023/07/25 04:41:59;;;;;;;2.25;1.38;;;;;;;15.98;100.00;99545.41;5155989;28;20026;-74
2023/07/25 04:44:29;;;;;;;9.52;1.70;;;;;;;16.14;100.00;99538.03;5175650;28;20045;-77
2023/07/25 04:46:59;;;;;;;8.13;1.70;;;;;;;16.27;100.00;99522.13;5173985;28;20509;-77
2023/07/25 04:49:30;;;;;;;10.80;1.55;;;;;;;16.42;100.00;99532.38;5175528;28;20342;-74
2023/07/25 04:52:00;;;;;;;6.50;1.33;;;;;;;16.55;100.00;99527.03;5174266;28;20117;-77
2023/07/25 04:54:30;;;;;;;6.10;1.77;;;;;;;16.69;100.00;99530.28;5170646;28;20102;-77
2023/07/25 04:57:00;;;;;;;5.10;1.40;;;;;;;16.54;100.00;99531.47;5170573;28;20833;-74
2023/07/25 04:59:32;;;;;;;6.20;1.50;;;;;;;16.66;100.00;99525.25;5180678;28;20034;-76
2023/07/25 05:02:02;;;;;;;9.27;1.75;;;;;;;16.71;100.00;99520.47;5176650;28;20283;-77
2023/07/25 05:04:32;;;;;;;8.05;2.03;;;;;;;16.84;100.00;99515.91;5176502;28;20038;-74
2023/07/25 05:07:03;;;;;;;7.97;1.88;;;;;;;16.93;100.00;99510.75;5173776;28;20056;-75
2023/07/25 05:09:33;;;;;;;8.05;1.60;;;;;;;16.91;100.00;99512.69;5172546;28;20033;-76
2023/07/25 05:12:04;;;;;;;8.88;1.55;;;;;;;16.86;100.00;99501.66;5180984;28;20037;-77
2023/07/25 05:14:34;;;;;;;7.63;1.50;;;;;;;17.06;100.00;99508.84;5160589;28;20026;-75
2023/07/25 05:17:04;;;;;;;8.48;1.50;;;;;;;16.93;100.00;99513.41;5171523;28;20154;-77
2023/07/25 05:19:35;;;;;;;10.18;1.67;;;;;;;16.97;100.00;99522.75;5176485;28;20038;-77
2023/07/25 05:22:05;;;;;;;2.67;1.27;;;;;;;17.01;100.00;99518.91;5172377;28;20026;-77
2023/07/25 05:24:35;;;;;;;11.13;1.85;;;;;;;17.06;100.00;99519.41;5189175;28;20134;-74
2023/07/25 05:27:06;;;;;;;7.30;1.70;;;;;;;16.99;100.00;99520.00;5188005;28;20065;-74
2023/07/25 05:29:36;;;;;;;5.20;1.80;;;;;;;17.02;100.00;99519.75;5171788;28;20053;-77
2023/07/25 05:32:07;;;;;;;4.37;1.50;;;;;;;17.29;100.00;99520.25;5174284;28;20026;-76
2023/07/25 05:34:37;;;;;;;5.93;1.67;;;;;;;17.13;100.00;99519.78;5173826;28;20287;-76
2023/07/25 05:37:07;;;;;;;7.07;1.60;;;;;;;17.07;100.00;99514.94;5164066;28;20037;-77
2023/07/25 05:39:38;;;;;;;4.75;1.45;;;;;;;17.34;100.00;99516.28;5172370;28;20273;-76
2023/07/25 05:42:08;;;;;;;6.72;1.80;;;;;;;17.42;100.00;99531.50;5170283;28;20034;-75
2023/07/25 05:44:38;;;;;;;5.87;1.57;;;;;;;17.71;100.00;99537.94;5181972;28;20121;-77
2023/07/25 05:47:08;;;;;;;11.55;2.10;;;;;;;17.71;100.00;99540.59;5175104;28;20293;-75
2023/07/25 05:49:39;;;;;;;5.45;1.83;;;;;;;17.59;100.00;99550.34;5195509;28;20308;-77
2023/07/25 05:52:09;;;;;;;5.65;2.13;;;;;;;17.14;100.00;99555.78;5183112;28;20158;-77
2023/07/25 05:54:39;;;;;;;10.73;2.67;;;;;;;17.42;100.00;99557.94;5171560;28;20292;-77
2023/07/25 05:57:09;;;;;;;10.60;3.13;;;;;;;17.22;100.00;99561.28;5172970;28;20367;-74
2023/07/25 05:59:42;;;;;;;6.90;2.78;;;;;;;17.21;100.00;99557.81;5162174;28;20292;-77
2023/07/25 06:02:12;;;;;;;9.98;3.40;;;;;;;17.05;100.00;99567.91;5154596;28;20036;-76
2023/07/25 06:04:45;;;;;;;10.00;2.97;;;;;;;17.35;100.00;99562.84;5171503;28;20471;-75
2023/07/25 06:07:16;;;;;;;9.90;3.20;;;;;;;17.10;100.00;99559.59;5184430;28;20043;-77
2023/07/25 06:09:46;;;;;;;6.45;2.95;;;;;;;17.50;100.00;99564.28;5172399;28;20093;-74
2023/07/25 06:12:17;;;;;;;9.33;2.90;;;;;;;17.64;100.00;99576.41;5173455;28;20387;-77
2023/07/25 06:14:48;;;;;;;6.82;2.70;;;;;;;17.37;100.00;99571.53;5154331;28;20273;-73
2023/07/25 06:17:18;;;;;;;8.63;2.70;;;;;;;17.63;100.00;99575.56;5172075;28;20461;-74
2023/07/25 06:19:49;;;;;;;11.18;3.28;;;;;;;17.68;100.00;99585.78;5181647;28;20082;-75
2023/07/25 06:22:19;;;;;;;11.32;3.50;;;;;;;17.81;100.00;99600.50;5176573;28;20035;-77
2023/07/25 06:24:49;;;;;;;9.23;3.10;;;;;;;17.89;100.00;99598.09;5180908;28;20014;-75
2023/07/25 06:27:19;;;;;;;12.25;3.00;;;;;;;17.67;100.00;99606.06;5170650;28;20060;-76
2023/07/25 06:29:50;;;;;;;12.73;3.05;;;;;;;17.87;100.00;99612.41;5173413;28;20082;-77
2023/07/25 06:32:20;;;;;;;11.87;3.30;;;;;;;17.92;100.00;99620.78;5180812;28;20038;-77
2023/07/25 06:34:50;;;;;;;6.60;3.05;;;;;;;17.88;100.00;99622.88;5171690;28;20288;-77
2023/07/25 06:37:21;;;;;;;7.55;3.25;;;;;;;17.60;100.00;99635.72;5174106;28;20078;-77
2023/07/25 06:39:51;;;;;;;5.70;3.05;;;;;;;17.69;100.00;99629.72;5172987;28;20121;-76
2023/07/25 06:42:21;;;;;;;7.93;2.83;;;;;;;17.77;100.00;99624.66;5169271;28;20514;-76
2023/07/25 06:44:51;;;;;;;6.88;3.15;;;;;;;17.84;99.81;99633.81;5172646;28;20291;-76
2023/07/25 06:47:23;;;;;;;4.63;3.17;;;;;;;17.92;100.00;99626.06;5172549;28;20026;-76
2023/07/25 06:49:53;;;;;;;8.07;3.30;;;;;;;18.00;100.00;99624.50;5172160;28;20442;-77
2023/07/25 06:52:23;;;;;;;12.23;3.47;;;;;;;17.96;100.00;99611.66;5171002;28;20112;-76
2023/07/25 06:54:54;;;;;;;13.23;3.53;;;;;;;18.06;99.55;99602.88;5169107;28;20483;-76
2023/07/25 06:57:24;;;;;;;9.88;3.17;;;;;;;18.26;99.46;99603.88;5170524;28;20117;-76
2023/07/25 06:59:55;;;;;;;7.40;2.75;;;;;;;18.14;98.09;99604.88;5173292;28;20022;-77
2023/07/25 07:02:25;;;;;;;6.88;2.67;;;;;;;18.46;96.17;99605.72;5171665;28;20018;-74
2023/07/25 07:04:56;;;;;;;6.82;2.53;;;;;;;18.47;95.83;99605.63;5172613;28;20251;-75
2023/07/25 07:07:26;;;;;;;5.60;2.50;;;;;;;18.73;95.70;99605.13;5169988;28;20037;-77
2023/07/25 07:09:56;;;;;;;15.85;2.80;;;;;;;18.65;96.13;99600.59;5170106;28;20518;-74
2023/07/25 07:12:26;;;;;;;23.80;4.82;;;;;;;18.37;97.13;99603.88;5173070;28;20229;-77
2023/07/25 07:14:57;;;;;;;14.45;3.90;;;;;;;18.36;98.83;99599.53;5172660;28;20552;-77
2023/07/25 07:17:27;;;;;;;6.80;3.30;;;;;;;18.28;99.87;99596.66;5172482;28;20057;-73
2023/07/25 07:20:00;;;;;;;9.25;3.35;;;;;;;18.25;96.51;99592.47;5172006;28;20314;-74
2023/07/25 07:22:30;;;;;;;7.57;3.13;;;;;;;18.34;98.00;99585.59;5175917;28;20070;-75
2023/07/25 07:25:01;;;;;;;11.98;3.63;;;;;;;18.46;98.40;99590.72;5172485;28;20522;-76
2023/07/25 07:27:31;;;;;;;3.90;2.28;;;;;;;18.21;96.56;99580.44;5171124;28;20125;-77
2023/07/25 07:30:02;;;;;;;7.43;2.50;;;;;;;18.19;97.94;99576.25;5161818;28;20977;-76
2023/07/25 07:32:33;;;;;;;6.57;2.90;;;;;;;18.12;98.23;99575.91;5151289;28;20167;-77
2023/07/25 07:35:03;;;;;;;7.03;2.55;;;;;;;18.06;96.21;99567.63;5170119;28;20116;-77
2023/07/25 07:37:34;;;;;;;9.35;3.30;;;;;;;17.77;99.06;99570.00;5170317;28;20037;-77
2023/07/25 07:40:05;;;;;;;11.52;2.55;;;;;;;17.65;99.41;99578.91;5172238;28;20042;-73
2023/07/25 07:42:35;;;;;;;10.52;2.50;;;;;;;17.89;99.77;99579.59;5150608;28;20026;-77
2023/07/25 07:45:06;;;;;;;5.23;2.40;;;;;;;18.99;97.63;99571.97;5223414;28;20034;-75
2023/07/25 07:47:37;;;;;;;8.88;2.28;;;;;;;18.88;95.20;99573.84;5171740;28;20710;-75
2023/07/25 07:50:07;;;;;;;5.63;1.95;;;;;;;19.10;97.34;99571.88;5171836;28;20308;-76
2023/07/25 07:52:41;;;;;;;7.43;2.20;;;;;;;18.86;95.39;99571.34;5151895;28;20041;-77
2023/07/25 07:55:12;;;;;;;9.38;2.50;;;;;;;19.19;98.15;99571.13;5171330;28;20022;-76
2023/07/25 07:57:44;;;;;;;8.75;2.22;;;;;;;21.30;82.48;99559.47;5174884;28;20026;-75
2023/07/25 08:00:15;;;;;;;4.50;1.70;;;;;;;23.34;76.28;99544.91;5171210;28;20041;-77
2023/07/25 08:02:46;;;;;;;5.78;1.60;;;;;;;23.62;72.60;99554.38;5174651;28;20555;-78
2023/07/25 08:05:16;;;;;;;2.85;1.48;;;;;;;24.50;70.96;99546.53;5176275;28;20076;-77
2023/07/25 08:07:47;;;;;;;4.65;1.42;;;;;;;24.60;66.48;99546.41;5174421;28;20103;-77
2023/07/25 08:10:17;;;;;;;4.28;1.48;;;;;;;23.07;72.33;99558.41;5158033;28;20532;-77
2023/07/25 08:12:48;;;;;;;5.93;1.48;;;;;;;22.13;73.34;99557.47;5175520;28;20037;-75
2023/07/25 08:15:18;;;;;;;8.38;1.70;;;;;;;21.65;75.52;99564.94;5158818;28;20483;-77
2023/07/25 08:17:49;;;;;;;4.97;1.60;;;;;;;21.73;75.86;99556.22;5174428;28;20069;-76
2023/07/25 08:20:19;;;;;;;2.78;1.10;;;;;;;22.93;71.62;99548.31;5173333;28;20502;-75
2023/07/25 08:22:49;;;;;;;5.73;1.23;;;;;;;22.83;69.17;99542.25;5178366;28;20025;-77
2023/07/25 08:25:19;;;;;;;4.10;1.00;;;;;;;21.62;72.41;99545.75;5174259;28;20754;-77
2023/07/25 08:27:50;;;;;;;4.07;0.93;;;;;;;22.58;70.96;99546.75;5159145;28;20118;-76
2023/07/25 08:30:20;;;;;;;5.13;1.20;;;;;;;24.58;66.51;99535.88;5176704;28;20277;-77
2023/07/25 08:32:50;;;;;;;4.67;1.67;;;;;;;24.19;65.65;99539.34;5175171;28;20280;-77
2023/07/25 08:35:20;;;;;;;3.33;1.00;;;;;;;26.49;61.95;99525.41;5158472;28;20746;-76
2023/07/25 08:37:51;;;;;;;3.05;0.95;;;;;;;27.10;59.41;99534.88;5155683;28;20283;-77
2023/07/25 08:40:21;;;;;;;5.28;1.27;;;;;;;26.78;57.76;99534.34;5174881;28;20105;-78
2023/07/25 08:42:57;;;;;;;5.53;1.10;;;;;;;28.21;56.97;99530.91;5175893;28;20037;-77
2023/07/25 08:45:30;;;;;;;2.80;0.77;;;;;;;26.18;57.45;99543.38;5156103;28;20022;-75
2023/07/25 08:48:03;;;;;;;4.18;1.00;;;;;;;26.90;57.97;99531.03;5172072;28;20123;-74
2023/07/25 08:50:37;;;;;;;2.83;0.98;;;;;;;27.28;57.97;99535.34;5175486;28;20033;-75
2023/07/25 08:53:10;;;;;;;1.92;1.02;;;;;;;27.01;58.72;99535.97;5174508;28;20102;-77
2023/07/25 08:55:42;;;;;;;2.95;0.98;;;;;;;25.48;61.56;99547.06;5174916;28;20022;-76
2023/07/25 08:58:14;;;;;;;3.97;1.00;;;;;;;24.50;62.26;99546.53;5173139;28;20041;-74
2023/07/25 09:00:45;;;;;;;7.82;1.10;;;;;;;23.71;64.66;99547.22;5176486;28;20075;-75
2023/07/25 09:03:16;;;;;;;3.40;1.00;;;;;;;23.32;65.47;99549.56;5175799;28;20368;-76
2023/07/25 09:05:48;;;;;;;3.92;1.20;;;;;;;23.34;65.64;99549.44;5242543;28;20026;-74
2023/07/25 09:08:18;;;;;;;4.50;1.10;;;;;;;24.68;63.90;99533.88;5170583;28;20041;-77
2023/07/25 09:10:49;;;;;;;5.28;0.88;;;;;;;26.80;57.84;99525.09;5184699;28;20034;-74
2023/07/25 09:13:19;;;;;;;2.97;0.88;;;;;;;27.18;58.54;99525.91;5173033;28;20045;-77
2023/07/25 09:15:50;;;;;;;18.83;4.60;;;;;;;27.60;54.11;99531.44;5168712;28;20530;-76
2023/07/25 09:18:20;;;;;;;2.90;1.10;;;;;;;26.79;53.74;99538.69;5181086;28;20563;-77
2023/07/25 09:20:51;;;;;;;1.95;0.70;;;;;;;28.21;52.87;99533.59;5173538;28;20280;-77
2023/07/25 09:23:21;;;;;;;2.80;0.70;;;;;;;27.83;55.01;99541.06;5174819;28;20018;-77
2023/07/25 09:26:03;;;;;;;2.55;0.80;;;;;;;27.27;55.39;99547.09;5173301;28;20049;-75
2023/07/25 09:28:34;;;;;;;1.85;0.68;;;;;;;28.92;54.62;99547.75;5173457;28;20463;-75
2023/07/25 09:31:04;;;;;;;3.87;0.70;;;;;;;27.72;53.46;99551.44;5182226;28;20132;-75
2023/07/25 09:33:34;;;;;;;2.83;0.67;;;;;;;25.48;57.94;99560.47;5179841;28;20299;-73
2023/07/25 09:36:06;;;;;;;4.50;1.20;;;;;;;24.21;60.38;99572.91;5170688;28;20277;-74
2023/07/25 09:38:36;;;;;;;4.35;0.80;;;;;;;23.08;63.97;99564.56;5171200;28;20793;-74
2023/07/25 09:41:06;;;;;;;3.72;0.90;;;;;;;23.10;66.20;99574.09;5174524;28;21555;-77
2023/07/25 09:43:38;;;;;;;3.80;0.88;;;;;;;22.62;66.15;99578.22;5152946;28;20034;-75
2023/07/25 09:46:09;;;;;;;2.42;0.90;;;;;;;21.71;67.87;99574.16;5176659;28;20038;-76
2023/07/25 09:48:46;;;;;;;2.90;0.80;;;;;;;22.11;65.77;99572.72;5171346;28;20521;-76
2023/07/25 09:51:16;;;;;;;1.80;0.60;;;;;;;22.72;63.34;99568.31;5166189;28;20531;-73
2023/07/25 09:53:52;;;;;;;3.97;0.90;;;;;;;24.63;60.13;99560.28;5169932;28;20079;-73
2023/07/25 09:56:23;;;;;;;4.72;0.90;;;;;;;24.51;59.86;99561.56;5166857;28;20651;-75
2023/07/25 09:58:54;;;;;;;4.57;1.20;;;;;;;25.01;59.96;99563.03;5166944;28;20041;-74
2023/07/25 10:01:25;;;;;;;3.95;0.90;;;;;;;25.90;57.02;99560.94;5152227;28;20044;-76
2023/07/25 10:03:55;;;;;;;2.10;0.63;;;;;;;26.10;53.68;99557.66;5158891;28;20036;-74
2023/07/25 10:06:27;;;;;;;3.28;0.80;;;;;;;24.49;57.46;99566.25;5170333;28;20035;-76
2023/07/25 10:08:58;;;;;;;2.13;0.80;;;;;;;24.93;58.59;99573.78;5170403;28;20030;-74
2023/07/25 10:11:28;;;;;;;1.90;0.60;;;;;;;24.27;62.12;99574.06;5156986;28;20687;-76
2023/07/25 10:14:00;;;;;;;3.72;0.93;;;;;;;23.64;62.81;99573.72;5170537;28;20046;-75
2023/07/25 10:16:30;;;;;;;4.10;0.77;;;;;;;23.18;63.08;99566.16;5171121;28;20046;-73
2023/07/25 10:19:04;;;;;;;2.33;0.90;;;;;;;23.54;63.18;99577.50;5171436;28;20119;-75
2023/07/25 10:21:49;;;;;;;5.28;1.10;;;;;;;22.75;62.74;99576.84;5151322;28;20049;-75
2023/07/25 10:24:20;;;;;;;2.55;0.70;;;;;;;23.44;61.52;99569.63;5169473;28;20113;-73
2023/07/25 10:26:58;;;;;;;3.85;1.00;;;;;;;23.38;62.55;99578.25;5169964;28;20083;-73
2023/07/25 10:29:43;;;;;;;3.30;0.93;;;;;;;23.25;63.32;99575.22;5178252;28;20038;-76
2023/07/25 10:32:15;;;;;;;4.75;1.15;;;;;;;23.55;61.48;99566.66;5171549;28;20537;-76
2023/07/25 10:34:47;;;;;;;6.95;1.73;;;;;;;23.39;61.77;99571.09;5173491;28;20457;-76
2023/07/25 10:37:29;;;;;;;2.65;1.00;;;;;;;23.33;62.61;99567.25;5175906;28;20116;-76
2023/07/25 10:40:10;;;;;;;3.35;1.08;;;;;;;23.36;61.67;99566.91;5150224;28;20025;-75
2023/07/25 10:42:46;;;;;;;3.58;1.00;;;;;;;23.34;62.94;99558.25;5157589;28;20433;-76
2023/07/25 10:45:21;;;;;;;4.93;1.30;;;;;;;23.07;62.91;99562.91;5153554;28;20419;-76
2023/07/25 10:47:51;;;;;;;7.72;0.90;;;;;;;22.89;60.77;99560.31;5167158;28;20042;-73
2023/07/25 10:50:26;;;;;;;3.03;0.80;;;;;;;23.13;62.73;99559.63;5172581;28;20537;-76
2023/07/25 10:52:56;;;;;;;7.43;1.23;;;;;;;23.21;62.58;99568.50;5170094;28;20284;-73
2023/07/25 10:55:26;;;;;;;3.72;1.05;;;;;;;23.41;61.47;99555.78;5172115;28;20272;-75
2023/07/25 10:58:10;;;;;;;5.15;1.13;;;;;;;23.10;62.22;99558.09;5169790;28;20030;-73
2023/07/25 11:00:40;;;;;;;4.72;1.67;;;;;;;23.19;61.58;99557.16;5172309;28;20484;-76
2023/07/25 11:03:32;;;;;;;3.45;1.10;;;;;;;22.60;62.23;99555.41;5170081;28;20049;-76
2023/07/25 11:06:08;;;;;;;2.92;0.82;;;;;;;23.06;62.74;99554.06;5177460;28;20030;-75
2023/07/25 11:08:42;;;;;;;4.68;0.90;;;;;;;22.34;63.11;99550.00;5154341;28;20058;-76
2023/07/25 11:11:13;;;;;;;3.15;1.10;;;;;;;22.42;63.06;99549.28;5176075;28;20568;-76
2023/07/25 11:13:43;;;;;;;3.42;0.70;;;;;;;22.03;63.79;99543.41;5175926;28;20128;-75
2023/07/25 11:16:14;;;;;;;3.50;0.90;;;;;;;21.82;63.30;99544.66;5170574;28;20470;-75
2023/07/25 11:18:51;;;;;;;4.95;1.02;;;;;;;21.63;64.30;99553.63;5169864;28;20841;-75
2023/07/25 11:21:21;;;;;;;5.15;0.98;;;;;;;21.71;65.34;99545.72;5171924;28;20325;-75
2023/07/25 11:24:03;;;;;;;4.38;0.80;;;;;;;21.82;64.07;99544.66;5172993;28;20065;-74
2023/07/25 11:26:36;;;;;;;3.47;0.90;;;;;;;21.93;66.43;99544.44;5156102;28;20269;-76
2023/07/25 11:29:09;;;;;;;5.70;1.20;;;;;;;21.92;66.12;99542.78;5171698;28;20050;-76
2023/07/25 11:31:49;;;;;;;1.50;0.80;;;;;;;21.86;64.86;99540.69;5170484;28;20493;-74
2023/07/25 11:34:20;;;;;;;5.05;1.10;;;;;;;21.91;65.09;99538.44;5170864;28;20085;-76
2023/07/25 11:36:50;;;;;;;3.08;1.00;;;;;;;22.28;65.55;99547.13;5169814;28;20030;-73
2023/07/25 11:39:22;;;;;;;2.83;0.90;;;;;;;22.36;65.36;99537.38;5156686;28;20030;-76
2023/07/25 11:41:52;;;;;;;2.33;0.95;;;;;;;22.56;63.59;99535.41;5173495;28;20386;-73
2023/07/25 11:44:23;;;;;;;4.00;0.82;;;;;;;22.71;61.92;99530.19;5177151;28;20029;-76